sensor_id;sensor_type;location;lat;lon;timestamp;P1;durP1;ratioP1;P2;durP2;ratioP2
21110;SDS011;10713;51.912;4.494;2024-01-30T00:02:14;42.33;;;14.35;;
21110;SDS011;10713;51.912;4.494;2024-01-30T00:04:39;36.95;;;14.82;;
21110;SDS011;10713;51.912;4.494;2024-01-30T00:07:05;41.20;;;16.20;;
21110;SDS011;10713;51.912;4.494;2024-01-30T00:09:30;32.70;;;13.73;;
21110;SDS011;10713;51.912;4.494;2024-01-30T00:11:56;31.05;;;12.98;;
21110;SDS011;10713;51.912;4.494;2024-01-30T00:14:21;29.88;;;11.75;;
21110;SDS011;10713;51.912;4.494;2024-01-30T00:16:47;34.63;;;12.50;;
21110;SDS011;10713;51.912;4.494;2024-01-30T00:19:12;24.02;;;10.75;;
21110;SDS011;10713;51.912;4.494;2024-01-30T00:21:37;22.65;;;8.73;;
21110;SDS011;10713;51.912;4.494;2024-01-30T00:24:03;20.60;;;7.47;;
21110;SDS011;10713;51.912;4.494;2024-01-30T00:26:29;25.20;;;9.27;;
21110;SDS011;10713;51.912;4.494;2024-01-30T00:28:54;35.22;;;11.55;;
21110;SDS011;10713;51.912;4.494;2024-01-30T00:31:20;31.77;;;13.07;;
21110;SDS011;10713;51.912;4.494;2024-01-30T00:33:48;30.90;;;12.32;;
21110;SDS011;10713;51.912;4.494;2024-01-30T00:36:13;39.30;;;14.77;;
21110;SDS011;10713;51.912;4.494;2024-01-30T00:38:38;35.50;;;13.50;;
21110;SDS011;10713;51.912;4.494;2024-01-30T00:41:05;34.53;;;11.93;;
21110;SDS011;10713;51.912;4.494;2024-01-30T00:43:33;28.10;;;11.43;;
21110;SDS011;10713;51.912;4.494;2024-01-30T00:45:59;32.45;;;10.77;;
21110;SDS011;10713;51.912;4.494;2024-01-30T00:48:24;33.72;;;11.88;;
21110;SDS011;10713;51.912;4.494;2024-01-30T00:50:49;27.02;;;10.93;;
21110;SDS011;10713;51.912;4.494;2024-01-30T00:53:15;27.70;;;10.35;;
21110;SDS011;10713;51.912;4.494;2024-01-30T00:55:40;22.10;;;9.18;;
21110;SDS011;10713;51.912;4.494;2024-01-30T00:58:06;13.13;;;5.90;;
21110;SDS011;10713;51.912;4.494;2024-01-30T01:00:32;13.73;;;6.25;;
21110;SDS011;10713;51.912;4.494;2024-01-30T01:02:58;12.82;;;5.65;;
21110;SDS011;10713;51.912;4.494;2024-01-30T01:05:24;12.45;;;5.97;;
21110;SDS011;10713;51.912;4.494;2024-01-30T01:07:49;9.40;;;4.50;;
21110;SDS011;10713;51.912;4.494;2024-01-30T01:10:16;11.07;;;5.40;;
21110;SDS011;10713;51.912;4.494;2024-01-30T01:12:42;10.65;;;5.22;;
21110;SDS011;10713;51.912;4.494;2024-01-30T01:15:08;10.75;;;5.22;;
21110;SDS011;10713;51.912;4.494;2024-01-30T01:17:35;12.25;;;4.60;;
21110;SDS011;10713;51.912;4.494;2024-01-30T01:20:03;15.38;;;5.15;;
21110;SDS011;10713;51.912;4.494;2024-01-30T01:22:31;10.20;;;4.43;;
21110;SDS011;10713;51.912;4.494;2024-01-30T01:24:57;10.32;;;4.43;;
21110;SDS011;10713;51.912;4.494;2024-01-30T01:27:22;9.43;;;4.38;;
21110;SDS011;10713;51.912;4.494;2024-01-30T01:29:48;11.55;;;4.63;;
21110;SDS011;10713;51.912;4.494;2024-01-30T01:32:13;10.23;;;5.00;;
21110;SDS011;10713;51.912;4.494;2024-01-30T01:34:38;12.38;;;5.47;;
21110;SDS011;10713;51.912;4.494;2024-01-30T01:37:04;13.73;;;5.60;;
21110;SDS011;10713;51.912;4.494;2024-01-30T01:39:29;13.05;;;4.90;;
21110;SDS011;10713;51.912;4.494;2024-01-30T01:41:54;16.83;;;6.32;;
21110;SDS011;10713;51.912;4.494;2024-01-30T01:44:20;10.68;;;5.68;;
21110;SDS011;10713;51.912;4.494;2024-01-30T01:46:45;16.42;;;5.15;;
21110;SDS011;10713;51.912;4.494;2024-01-30T01:49:11;13.02;;;4.97;;
21110;SDS011;10713;51.912;4.494;2024-01-30T01:51:36;22.48;;;6.68;;
21110;SDS011;10713;51.912;4.494;2024-01-30T01:54:04;11.82;;;5.70;;
21110;SDS011;10713;51.912;4.494;2024-01-30T01:56:33;12.65;;;5.25;;
21110;SDS011;10713;51.912;4.494;2024-01-30T01:59:06;9.68;;;4.70;;
21110;SDS011;10713;51.912;4.494;2024-01-30T02:01:37;14.82;;;5.70;;
21110;SDS011;10713;51.912;4.494;2024-01-30T02:04:04;12.88;;;4.05;;
21110;SDS011;10713;51.912;4.494;2024-01-30T02:06:29;11.98;;;5.28;;
21110;SDS011;10713;51.912;4.494;2024-01-30T02:08:55;11.82;;;5.32;;
21110;SDS011;10713;51.912;4.494;2024-01-30T02:11:21;11.27;;;4.40;;
21110;SDS011;10713;51.912;4.494;2024-01-30T02:13:47;11.05;;;4.63;;
21110;SDS011;10713;51.912;4.494;2024-01-30T02:16:13;13.18;;;4.78;;
21110;SDS011;10713;51.912;4.494;2024-01-30T02:18:38;10.77;;;4.82;;
21110;SDS011;10713;51.912;4.494;2024-01-30T02:21:08;10.20;;;5.22;;
21110;SDS011;10713;51.912;4.494;2024-01-30T02:23:34;9.65;;;4.25;;
21110;SDS011;10713;51.912;4.494;2024-01-30T02:25:59;12.57;;;4.90;;
21110;SDS011;10713;51.912;4.494;2024-01-30T02:28:25;11.50;;;5.38;;
21110;SDS011;10713;51.912;4.494;2024-01-30T02:30:51;10.68;;;4.13;;
21110;SDS011;10713;51.912;4.494;2024-01-30T02:33:16;9.15;;;4.28;;
21110;SDS011;10713;51.912;4.494;2024-01-30T02:35:42;10.18;;;4.20;;
21110;SDS011;10713;51.912;4.494;2024-01-30T02:38:07;6.35;;;3.15;;
21110;SDS011;10713;51.912;4.494;2024-01-30T02:40:32;10.05;;;4.72;;
21110;SDS011;10713;51.912;4.494;2024-01-30T02:42:59;10.20;;;4.70;;
21110;SDS011;10713;51.912;4.494;2024-01-30T02:45:25;8.70;;;3.63;;
21110;SDS011;10713;51.912;4.494;2024-01-30T02:47:50;11.15;;;4.75;;
21110;SDS011;10713;51.912;4.494;2024-01-30T02:50:16;9.65;;;4.82;;
21110;SDS011;10713;51.912;4.494;2024-01-30T02:52:41;12.70;;;5.22;;
21110;SDS011;10713;51.912;4.494;2024-01-30T02:55:08;9.82;;;4.00;;
21110;SDS011;10713;51.912;4.494;2024-01-30T02:57:34;11.27;;;4.32;;
21110;SDS011;10713;51.912;4.494;2024-01-30T02:59:59;8.70;;;4.25;;
21110;SDS011;10713;51.912;4.494;2024-01-30T03:02:25;9.98;;;4.35;;
21110;SDS011;10713;51.912;4.494;2024-01-30T03:04:50;8.52;;;3.78;;
21110;SDS011;10713;51.912;4.494;2024-01-30T03:07:16;14.40;;;5.43;;
21110;SDS011;10713;51.912;4.494;2024-01-30T03:09:41;19.10;;;5.07;;
21110;SDS011;10713;51.912;4.494;2024-01-30T03:12:10;10.38;;;4.80;;
21110;SDS011;10713;51.912;4.494;2024-01-30T03:14:35;11.65;;;4.55;;
21110;SDS011;10713;51.912;4.494;2024-01-30T03:17:01;12.05;;;4.30;;
21110;SDS011;10713;51.912;4.494;2024-01-30T03:19:26;12.68;;;4.25;;
21110;SDS011;10713;51.912;4.494;2024-01-30T03:21:52;9.68;;;4.55;;
21110;SDS011;10713;51.912;4.494;2024-01-30T03:24:17;10.85;;;4.85;;
21110;SDS011;10713;51.912;4.494;2024-01-30T03:26:43;14.20;;;4.10;;
21110;SDS011;10713;51.912;4.494;2024-01-30T03:29:08;11.25;;;4.43;;
21110;SDS011;10713;51.912;4.494;2024-01-30T03:31:34;6.35;;;3.38;;
21110;SDS011;10713;51.912;4.494;2024-01-30T03:34:00;9.80;;;4.13;;
21110;SDS011;10713;51.912;4.494;2024-01-30T03:36:26;10.95;;;4.60;;
21110;SDS011;10713;51.912;4.494;2024-01-30T03:38:51;9.90;;;4.63;;
21110;SDS011;10713;51.912;4.494;2024-01-30T03:41:16;9.88;;;3.67;;
21110;SDS011;10713;51.912;4.494;2024-01-30T03:43:42;9.20;;;4.80;;
21110;SDS011;10713;51.912;4.494;2024-01-30T03:46:07;9.13;;;4.50;;
21110;SDS011;10713;51.912;4.494;2024-01-30T03:48:32;6.40;;;3.45;;
21110;SDS011;10713;51.912;4.494;2024-01-30T03:50:58;9.25;;;3.90;;
21110;SDS011;10713;51.912;4.494;2024-01-30T03:53:23;13.30;;;4.25;;
21110;SDS011;10713;51.912;4.494;2024-01-30T03:55:49;12.27;;;4.22;;
21110;SDS011;10713;51.912;4.494;2024-01-30T03:58:14;9.23;;;3.83;;
21110;SDS011;10713;51.912;4.494;2024-01-30T04:00:39;9.82;;;3.40;;
21110;SDS011;10713;51.912;4.494;2024-01-30T04:03:06;9.35;;;4.20;;
21110;SDS011;10713;51.912;4.494;2024-01-30T04:05:32;10.25;;;4.57;;
21110;SDS011;10713;51.912;4.494;2024-01-30T04:07:57;7.43;;;3.83;;
21110;SDS011;10713;51.912;4.494;2024-01-30T04:10:23;9.35;;;3.45;;
21110;SDS011;10713;51.912;4.494;2024-01-30T04:12:50;10.57;;;3.88;;
21110;SDS011;10713;51.912;4.494;2024-01-30T04:15:16;10.57;;;3.83;;
21110;SDS011;10713;51.912;4.494;2024-01-30T04:17:42;18.52;;;4.30;;
21110;SDS011;10713;51.912;4.494;2024-01-30T04:20:07;9.27;;;4.28;;
21110;SDS011;10713;51.912;4.494;2024-01-30T04:22:34;8.75;;;3.97;;
21110;SDS011;10713;51.912;4.494;2024-01-30T04:24:59;9.95;;;4.60;;
21110;SDS011;10713;51.912;4.494;2024-01-30T04:27:25;13.70;;;4.22;;
21110;SDS011;10713;51.912;4.494;2024-01-30T04:29:51;10.45;;;4.25;;
21110;SDS011;10713;51.912;4.494;2024-01-30T04:32:16;8.18;;;3.45;;
21110;SDS011;10713;51.912;4.494;2024-01-30T04:34:42;10.32;;;4.05;;
21110;SDS011;10713;51.912;4.494;2024-01-30T04:37:07;8.25;;;3.45;;
21110;SDS011;10713;51.912;4.494;2024-01-30T04:39:32;9.65;;;4.30;;
21110;SDS011;10713;51.912;4.494;2024-01-30T04:41:58;7.95;;;4.40;;
21110;SDS011;10713;51.912;4.494;2024-01-30T04:44:24;17.27;;;4.35;;
21110;SDS011;10713;51.912;4.494;2024-01-30T04:46:50;10.95;;;4.07;;
21110;SDS011;10713;51.912;4.494;2024-01-30T04:49:15;8.77;;;3.92;;
21110;SDS011;10713;51.912;4.494;2024-01-30T04:51:40;12.85;;;4.90;;
21110;SDS011;10713;51.912;4.494;2024-01-30T04:54:06;9.88;;;3.85;;
21110;SDS011;10713;51.912;4.494;2024-01-30T04:56:31;8.70;;;4.50;;
21110;SDS011;10713;51.912;4.494;2024-01-30T04:58:56;9.43;;;4.40;;
21110;SDS011;10713;51.912;4.494;2024-01-30T05:01:22;9.55;;;4.07;;
21110;SDS011;10713;51.912;4.494;2024-01-30T05:03:47;11.07;;;4.25;;
21110;SDS011;10713;51.912;4.494;2024-01-30T05:06:12;9.65;;;4.05;;
21110;SDS011;10713;51.912;4.494;2024-01-30T05:08:38;12.07;;;3.67;;
21110;SDS011;10713;51.912;4.494;2024-01-30T05:11:04;10.00;;;4.90;;
21110;SDS011;10713;51.912;4.494;2024-01-30T05:13:30;8.38;;;4.22;;
21110;SDS011;10713;51.912;4.494;2024-01-30T05:15:56;10.20;;;4.30;;
21110;SDS011;10713;51.912;4.494;2024-01-30T05:18:21;11.88;;;4.68;;
21110;SDS011;10713;51.912;4.494;2024-01-30T05:20:47;9.43;;;4.00;;
21110;SDS011;10713;51.912;4.494;2024-01-30T05:23:12;9.32;;;4.40;;
21110;SDS011;10713;51.912;4.494;2024-01-30T05:25:37;7.75;;;4.13;;
21110;SDS011;10713;51.912;4.494;2024-01-30T05:28:03;10.20;;;4.00;;
21110;SDS011;10713;51.912;4.494;2024-01-30T05:30:28;11.45;;;4.85;;
21110;SDS011;10713;51.912;4.494;2024-01-30T05:32:54;11.93;;;4.78;;
21110;SDS011;10713;51.912;4.494;2024-01-30T05:35:19;9.90;;;4.75;;
21110;SDS011;10713;51.912;4.494;2024-01-30T05:37:47;6.95;;;4.20;;
21110;SDS011;10713;51.912;4.494;2024-01-30T05:40:13;7.97;;;4.03;;
21110;SDS011;10713;51.912;4.494;2024-01-30T05:42:39;10.25;;;4.93;;
21110;SDS011;10713;51.912;4.494;2024-01-30T05:45:04;8.07;;;3.97;;
21110;SDS011;10713;51.912;4.494;2024-01-30T05:47:30;13.65;;;4.30;;
21110;SDS011;10713;51.912;4.494;2024-01-30T05:49:55;11.20;;;4.97;;
21110;SDS011;10713;51.912;4.494;2024-01-30T05:52:21;10.00;;;3.50;;
21110;SDS011;10713;51.912;4.494;2024-01-30T05:54:46;8.32;;;4.18;;
21110;SDS011;10713;51.912;4.494;2024-01-30T05:57:12;9.15;;;4.45;;
21110;SDS011;10713;51.912;4.494;2024-01-30T05:59:37;13.52;;;4.22;;
21110;SDS011;10713;51.912;4.494;2024-01-30T06:02:02;9.30;;;4.25;;
21110;SDS011;10713;51.912;4.494;2024-01-30T06:04:28;11.30;;;4.38;;
21110;SDS011;10713;51.912;4.494;2024-01-30T06:06:53;11.50;;;3.97;;
21110;SDS011;10713;51.912;4.494;2024-01-30T06:09:19;12.02;;;4.72;;
21110;SDS011;10713;51.912;4.494;2024-01-30T06:11:44;8.32;;;4.50;;
21110;SDS011;10713;51.912;4.494;2024-01-30T06:14:10;9.75;;;4.25;;
21110;SDS011;10713;51.912;4.494;2024-01-30T06:16:35;9.57;;;4.35;;
21110;SDS011;10713;51.912;4.494;2024-01-30T06:19:00;15.05;;;4.03;;
21110;SDS011;10713;51.912;4.494;2024-01-30T06:21:26;8.75;;;3.97;;
21110;SDS011;10713;51.912;4.494;2024-01-30T06:23:51;9.88;;;4.65;;
21110;SDS011;10713;51.912;4.494;2024-01-30T06:26:16;8.77;;;4.45;;
21110;SDS011;10713;51.912;4.494;2024-01-30T06:28:42;9.20;;;4.47;;
21110;SDS011;10713;51.912;4.494;2024-01-30T06:31:07;11.00;;;4.40;;
21110;SDS011;10713;51.912;4.494;2024-01-30T06:33:32;14.88;;;4.35;;
21110;SDS011;10713;51.912;4.494;2024-01-30T06:35:58;10.88;;;4.80;;
21110;SDS011;10713;51.912;4.494;2024-01-30T06:38:23;7.65;;;4.38;;
21110;SDS011;10713;51.912;4.494;2024-01-30T06:40:49;11.70;;;4.40;;
21110;SDS011;10713;51.912;4.494;2024-01-30T06:43:14;10.00;;;4.60;;
21110;SDS011;10713;51.912;4.494;2024-01-30T06:45:39;13.52;;;4.80;;
21110;SDS011;10713;51.912;4.494;2024-01-30T06:48:05;12.00;;;4.57;;
21110;SDS011;10713;51.912;4.494;2024-01-30T06:50:31;7.28;;;3.85;;
21110;SDS011;10713;51.912;4.494;2024-01-30T06:52:56;12.40;;;5.10;;
21110;SDS011;10713;51.912;4.494;2024-01-30T06:55:21;11.45;;;4.78;;
21110;SDS011;10713;51.912;4.494;2024-01-30T06:57:47;7.43;;;3.88;;
21110;SDS011;10713;51.912;4.494;2024-01-30T07:00:12;13.70;;;4.40;;
21110;SDS011;10713;51.912;4.494;2024-01-30T07:02:39;10.13;;;4.72;;
21110;SDS011;10713;51.912;4.494;2024-01-30T07:05:04;13.10;;;4.72;;
21110;SDS011;10713;51.912;4.494;2024-01-30T07:07:30;7.90;;;3.92;;
21110;SDS011;10713;51.912;4.494;2024-01-30T07:09:55;10.77;;;4.40;;
21110;SDS011;10713;51.912;4.494;2024-01-30T07:12:22;20.08;;;3.97;;
21110;SDS011;10713;51.912;4.494;2024-01-30T07:14:49;14.73;;;4.43;;
21110;SDS011;10713;51.912;4.494;2024-01-30T07:17:15;13.98;;;3.83;;
21110;SDS011;10713;51.912;4.494;2024-01-30T07:19:40;9.70;;;4.22;;
21110;SDS011;10713;51.912;4.494;2024-01-30T07:22:06;8.52;;;4.43;;
21110;SDS011;10713;51.912;4.494;2024-01-30T07:24:31;11.32;;;4.35;;
21110;SDS011;10713;51.912;4.494;2024-01-30T07:26:56;12.27;;;4.22;;
21110;SDS011;10713;51.912;4.494;2024-01-30T07:29:22;8.77;;;3.53;;
21110;SDS011;10713;51.912;4.494;2024-01-30T07:31:47;10.48;;;4.43;;
21110;SDS011;10713;51.912;4.494;2024-01-30T07:34:13;10.35;;;4.22;;
21110;SDS011;10713;51.912;4.494;2024-01-30T07:36:38;10.55;;;4.72;;
21110;SDS011;10713;51.912;4.494;2024-01-30T07:39:04;9.40;;;4.15;;
21110;SDS011;10713;51.912;4.494;2024-01-30T07:41:29;8.88;;;4.10;;
21110;SDS011;10713;51.912;4.494;2024-01-30T07:43:54;11.93;;;4.15;;
21110;SDS011;10713;51.912;4.494;2024-01-30T07:46:20;7.28;;;3.90;;
21110;SDS011;10713;51.912;4.494;2024-01-30T07:48:45;13.95;;;5.13;;
21110;SDS011;10713;51.912;4.494;2024-01-30T07:51:10;14.15;;;4.75;;
21110;SDS011;10713;51.912;4.494;2024-01-30T07:53:36;9.00;;;4.32;;
21110;SDS011;10713;51.912;4.494;2024-01-30T07:56:01;7.55;;;3.88;;
21110;SDS011;10713;51.912;4.494;2024-01-30T07:58:27;14.85;;;4.90;;
21110;SDS011;10713;51.912;4.494;2024-01-30T08:00:53;10.93;;;4.25;;
21110;SDS011;10713;51.912;4.494;2024-01-30T08:03:18;10.60;;;4.88;;
21110;SDS011;10713;51.912;4.494;2024-01-30T08:05:44;10.15;;;4.65;;
21110;SDS011;10713;51.912;4.494;2024-01-30T08:08:09;15.23;;;4.80;;
21110;SDS011;10713;51.912;4.494;2024-01-30T08:10:35;10.90;;;4.35;;
21110;SDS011;10713;51.912;4.494;2024-01-30T08:13:00;12.57;;;4.30;;
21110;SDS011;10713;51.912;4.494;2024-01-30T08:15:26;13.23;;;4.20;;
21110;SDS011;10713;51.912;4.494;2024-01-30T08:17:52;11.23;;;4.10;;
21110;SDS011;10713;51.912;4.494;2024-01-30T08:20:22;11.52;;;4.60;;
21110;SDS011;10713;51.912;4.494;2024-01-30T08:22:48;8.80;;;3.80;;
21110;SDS011;10713;51.912;4.494;2024-01-30T08:25:13;8.63;;;3.78;;
21110;SDS011;10713;51.912;4.494;2024-01-30T08:27:39;7.38;;;4.30;;
21110;SDS011;10713;51.912;4.494;2024-01-30T08:30:05;7.80;;;3.50;;
21110;SDS011;10713;51.912;4.494;2024-01-30T08:32:31;7.75;;;4.03;;
21110;SDS011;10713;51.912;4.494;2024-01-30T08:34:57;7.60;;;3.67;;
21110;SDS011;10713;51.912;4.494;2024-01-30T08:37:22;18.58;;;5.38;;
21110;SDS011;10713;51.912;4.494;2024-01-30T08:39:48;19.98;;;3.75;;
21110;SDS011;10713;51.912;4.494;2024-01-30T08:42:13;6.18;;;3.22;;
21110;SDS011;10713;51.912;4.494;2024-01-30T08:44:39;11.40;;;4.53;;
21110;SDS011;10713;51.912;4.494;2024-01-30T08:47:04;14.57;;;3.97;;
21110;SDS011;10713;51.912;4.494;2024-01-30T08:49:30;11.50;;;4.90;;
21110;SDS011;10713;51.912;4.494;2024-01-30T08:51:56;10.20;;;3.97;;
21110;SDS011;10713;51.912;4.494;2024-01-30T08:54:21;8.57;;;3.92;;
21110;SDS011;10713;51.912;4.494;2024-01-30T08:56:48;8.32;;;3.80;;
21110;SDS011;10713;51.912;4.494;2024-01-30T08:59:13;13.77;;;3.97;;
21110;SDS011;10713;51.912;4.494;2024-01-30T09:01:38;18.52;;;4.85;;
21110;SDS011;10713;51.912;4.494;2024-01-30T09:04:04;10.40;;;4.45;;
21110;SDS011;10713;51.912;4.494;2024-01-30T09:06:29;9.63;;;4.03;;
21110;SDS011;10713;51.912;4.494;2024-01-30T09:08:54;14.57;;;4.63;;
21110;SDS011;10713;51.912;4.494;2024-01-30T09:11:20;10.65;;;4.75;;
21110;SDS011;10713;51.912;4.494;2024-01-30T09:13:45;15.32;;;4.05;;
21110;SDS011;10713;51.912;4.494;2024-01-30T09:16:11;7.60;;;3.75;;
21110;SDS011;10713;51.912;4.494;2024-01-30T09:18:36;8.68;;;3.72;;
21110;SDS011;10713;51.912;4.494;2024-01-30T09:21:01;9.18;;;4.18;;
21110;SDS011;10713;51.912;4.494;2024-01-30T09:23:27;8.00;;;3.42;;
21110;SDS011;10713;51.912;4.494;2024-01-30T09:25:53;9.02;;;3.75;;
21110;SDS011;10713;51.912;4.494;2024-01-30T09:28:18;9.50;;;4.25;;
21110;SDS011;10713;51.912;4.494;2024-01-30T09:30:44;12.05;;;4.20;;
21110;SDS011;10713;51.912;4.494;2024-01-30T09:33:09;10.30;;;4.43;;
21110;SDS011;10713;51.912;4.494;2024-01-30T09:35:35;10.15;;;4.57;;
21110;SDS011;10713;51.912;4.494;2024-01-30T09:38:01;11.07;;;4.20;;
21110;SDS011;10713;51.912;4.494;2024-01-30T09:40:27;11.82;;;4.22;;
21110;SDS011;10713;51.912;4.494;2024-01-30T09:42:52;15.80;;;4.20;;
21110;SDS011;10713;51.912;4.494;2024-01-30T09:45:19;14.15;;;4.47;;
21110;SDS011;10713;51.912;4.494;2024-01-30T09:47:48;9.82;;;4.63;;
21110;SDS011;10713;51.912;4.494;2024-01-30T09:50:14;9.15;;;4.20;;
21110;SDS011;10713;51.912;4.494;2024-01-30T09:52:40;10.20;;;4.65;;
21110;SDS011;10713;51.912;4.494;2024-01-30T09:55:06;12.55;;;4.03;;
21110;SDS011;10713;51.912;4.494;2024-01-30T09:57:32;12.98;;;4.15;;
21110;SDS011;10713;51.912;4.494;2024-01-30T09:59:57;8.30;;;3.83;;
21110;SDS011;10713;51.912;4.494;2024-01-30T10:02:23;6.82;;;3.00;;
21110;SDS011;10713;51.912;4.494;2024-01-30T10:04:48;6.53;;;2.70;;
21110;SDS011;10713;51.912;4.494;2024-01-30T10:07:15;6.43;;;3.13;;
21110;SDS011;10713;51.912;4.494;2024-01-30T10:09:41;8.65;;;2.85;;
21110;SDS011;10713;51.912;4.494;2024-01-30T10:12:06;5.18;;;2.67;;
21110;SDS011;10713;51.912;4.494;2024-01-30T10:14:33;6.22;;;2.20;;
21110;SDS011;10713;51.912;4.494;2024-01-30T10:16:59;4.68;;;2.33;;
21110;SDS011;10713;51.912;4.494;2024-01-30T10:19:26;10.60;;;3.10;;
21110;SDS011;10713;51.912;4.494;2024-01-30T10:21:52;6.20;;;2.05;;
21110;SDS011;10713;51.912;4.494;2024-01-30T10:24:18;3.88;;;1.65;;
21110;SDS011;10713;51.912;4.494;2024-01-30T10:26:43;6.80;;;2.42;;
21110;SDS011;10713;51.912;4.494;2024-01-30T10:29:09;14.00;;;2.50;;
21110;SDS011;10713;51.912;4.494;2024-01-30T10:31:34;5.10;;;1.95;;
21110;SDS011;10713;51.912;4.494;2024-01-30T10:34:00;4.50;;;1.85;;
21110;SDS011;10713;51.912;4.494;2024-01-30T10:36:27;4.85;;;1.75;;
21110;SDS011;10713;51.912;4.494;2024-01-30T10:38:54;5.55;;;1.77;;
21110;SDS011;10713;51.912;4.494;2024-01-30T10:41:22;7.10;;;2.38;;
21110;SDS011;10713;51.912;4.494;2024-01-30T10:44:01;18.92;;;2.38;;
21110;SDS011;10713;51.912;4.494;2024-01-30T10:46:33;3.50;;;1.67;;
21110;SDS011;10713;51.912;4.494;2024-01-30T10:49:00;6.03;;;1.67;;
21110;SDS011;10713;51.912;4.494;2024-01-30T10:51:26;3.88;;;1.40;;
21110;SDS011;10713;51.912;4.494;2024-01-30T10:53:53;5.13;;;1.67;;
21110;SDS011;10713;51.912;4.494;2024-01-30T10:56:22;3.42;;;1.30;;
21110;SDS011;10713;51.912;4.494;2024-01-30T10:58:50;3.28;;;1.38;;
21110;SDS011;10713;51.912;4.494;2024-01-30T11:01:18;2.22;;;1.40;;
21110;SDS011;10713;51.912;4.494;2024-01-30T11:03:44;1.95;;;0.93;;
21110;SDS011;10713;51.912;4.494;2024-01-30T11:06:11;4.57;;;1.35;;
21110;SDS011;10713;51.912;4.494;2024-01-30T11:08:43;3.28;;;1.00;;
21110;SDS011;10713;51.912;4.494;2024-01-30T11:11:09;2.70;;;1.23;;
21110;SDS011;10713;51.912;4.494;2024-01-30T11:13:34;6.40;;;1.23;;
21110;SDS011;10713;51.912;4.494;2024-01-30T11:16:03;2.95;;;1.00;;
21110;SDS011;10713;51.912;4.494;2024-01-30T11:18:30;6.95;;;1.33;;
21110;SDS011;10713;51.912;4.494;2024-01-30T11:20:57;5.80;;;1.00;;
21110;SDS011;10713;51.912;4.494;2024-01-30T11:23:29;3.95;;;0.90;;
21110;SDS011;10713;51.912;4.494;2024-01-30T11:25:54;2.13;;;0.73;;
21110;SDS011;10713;51.912;4.494;2024-01-30T11:28:21;1.30;;;0.70;;
21110;SDS011;10713;51.912;4.494;2024-01-30T11:30:47;3.20;;;0.93;;
21110;SDS011;10713;51.912;4.494;2024-01-30T11:33:16;5.50;;;1.30;;
21110;SDS011;10713;51.912;4.494;2024-01-30T11:35:56;3.33;;;0.82;;
21110;SDS011;10713;51.912;4.494;2024-01-30T11:38:22;3.75;;;1.13;;
21110;SDS011;10713;51.912;4.494;2024-01-30T11:40:50;0.90;;;0.50;;
21110;SDS011;10713;51.912;4.494;2024-01-30T11:43:17;2.42;;;0.82;;
21110;SDS011;10713;51.912;4.494;2024-01-30T11:45:43;1.90;;;0.88;;
21110;SDS011;10713;51.912;4.494;2024-01-30T11:48:10;3.78;;;0.80;;
21110;SDS011;10713;51.912;4.494;2024-01-30T11:50:37;2.38;;;1.10;;
21110;SDS011;10713;51.912;4.494;2024-01-30T11:53:03;2.83;;;0.98;;
21110;SDS011;10713;51.912;4.494;2024-01-30T11:55:29;7.47;;;1.13;;
21110;SDS011;10713;51.912;4.494;2024-01-30T11:57:56;1.88;;;0.88;;
21110;SDS011;10713;51.912;4.494;2024-01-30T12:00:22;1.50;;;0.88;;
21110;SDS011;10713;51.912;4.494;2024-01-30T12:02:50;2.75;;;0.70;;
21110;SDS011;10713;51.912;4.494;2024-01-30T12:05:20;1.30;;;0.52;;
21110;SDS011;10713;51.912;4.494;2024-01-30T12:07:46;3.60;;;1.20;;
21110;SDS011;10713;51.912;4.494;2024-01-30T12:10:15;4.55;;;0.73;;
21110;SDS011;10713;51.912;4.494;2024-01-30T12:12:45;4.07;;;1.17;;
21110;SDS011;10713;51.912;4.494;2024-01-30T12:15:13;2.40;;;1.00;;
21110;SDS011;10713;51.912;4.494;2024-01-30T12:17:38;6.30;;;1.40;;
21110;SDS011;10713;51.912;4.494;2024-01-30T12:20:05;2.53;;;0.95;;
21110;SDS011;10713;51.912;4.494;2024-01-30T12:22:41;2.83;;;1.00;;
21110;SDS011;10713;51.912;4.494;2024-01-30T12:25:12;9.52;;;1.40;;
21110;SDS011;10713;51.912;4.494;2024-01-30T12:27:42;2.92;;;1.00;;
21110;SDS011;10713;51.912;4.494;2024-01-30T12:30:09;4.70;;;1.27;;
21110;SDS011;10713;51.912;4.494;2024-01-30T12:32:36;7.93;;;1.27;;
21110;SDS011;10713;51.912;4.494;2024-01-30T12:35:02;3.40;;;1.15;;
21110;SDS011;10713;51.912;4.494;2024-01-30T12:37:29;2.22;;;1.13;;
21110;SDS011;10713;51.912;4.494;2024-01-30T12:39:55;3.50;;;1.33;;
21110;SDS011;10713;51.912;4.494;2024-01-30T12:42:21;7.32;;;1.20;;
21110;SDS011;10713;51.912;4.494;2024-01-30T12:44:47;2.92;;;1.27;;
21110;SDS011;10713;51.912;4.494;2024-01-30T12:47:13;2.95;;;1.33;;
21110;SDS011;10713;51.912;4.494;2024-01-30T12:49:41;3.58;;;1.00;;
21110;SDS011;10713;51.912;4.494;2024-01-30T12:52:08;5.80;;;1.55;;
21110;SDS011;10713;51.912;4.494;2024-01-30T12:54:33;4.22;;;1.10;;
21110;SDS011;10713;51.912;4.494;2024-01-30T12:56:58;2.90;;;1.00;;
21110;SDS011;10713;51.912;4.494;2024-01-30T12:59:24;8.98;;;1.08;;
21110;SDS011;10713;51.912;4.494;2024-01-30T13:01:49;3.15;;;1.30;;
21110;SDS011;10713;51.912;4.494;2024-01-30T13:04:15;4.13;;;0.82;;
21110;SDS011;10713;51.912;4.494;2024-01-30T13:06:41;3.97;;;1.00;;
21110;SDS011;10713;51.912;4.494;2024-01-30T13:09:07;6.47;;;1.30;;
21110;SDS011;10713;51.912;4.494;2024-01-30T13:11:32;3.67;;;1.15;;
21110;SDS011;10713;51.912;4.494;2024-01-30T13:13:58;3.65;;;0.95;;
21110;SDS011;10713;51.912;4.494;2024-01-30T13:16:23;1.90;;;1.05;;
21110;SDS011;10713;51.912;4.494;2024-01-30T13:18:48;8.52;;;1.50;;
21110;SDS011;10713;51.912;4.494;2024-01-30T13:21:14;3.65;;;0.85;;
21110;SDS011;10713;51.912;4.494;2024-01-30T13:23:39;1.98;;;0.70;;
21110;SDS011;10713;51.912;4.494;2024-01-30T13:26:05;2.13;;;0.90;;
21110;SDS011;10713;51.912;4.494;2024-01-30T13:28:31;6.15;;;1.35;;
21110;SDS011;10713;51.912;4.494;2024-01-30T13:30:56;3.97;;;1.23;;
21110;SDS011;10713;51.912;4.494;2024-01-30T13:33:22;6.32;;;1.15;;
21110;SDS011;10713;51.912;4.494;2024-01-30T13:35:47;8.90;;;1.67;;
21110;SDS011;10713;51.912;4.494;2024-01-30T13:38:12;9.40;;;1.77;;
21110;SDS011;10713;51.912;4.494;2024-01-30T13:40:39;2.53;;;1.20;;
21110;SDS011;10713;51.912;4.494;2024-01-30T13:43:04;1.92;;;0.80;;
21110;SDS011;10713;51.912;4.494;2024-01-30T13:45:29;3.17;;;1.27;;
21110;SDS011;10713;51.912;4.494;2024-01-30T13:47:55;11.18;;;1.73;;
21110;SDS011;10713;51.912;4.494;2024-01-30T13:50:20;6.18;;;1.50;;
21110;SDS011;10713;51.912;4.494;2024-01-30T13:52:46;2.47;;;1.10;;
21110;SDS011;10713;51.912;4.494;2024-01-30T13:55:11;5.40;;;1.77;;
21110;SDS011;10713;51.912;4.494;2024-01-30T13:57:36;3.67;;;1.48;;
21110;SDS011;10713;51.912;4.494;2024-01-30T14:00:05;4.13;;;1.85;;
21110;SDS011;10713;51.912;4.494;2024-01-30T14:02:31;7.15;;;1.75;;
21110;SDS011;10713;51.912;4.494;2024-01-30T14:04:57;8.98;;;1.40;;
21110;SDS011;10713;51.912;4.494;2024-01-30T14:07:22;9.55;;;1.20;;
21110;SDS011;10713;51.912;4.494;2024-01-30T14:09:48;10.75;;;1.42;;
21110;SDS011;10713;51.912;4.494;2024-01-30T14:12:14;11.77;;;1.73;;
21110;SDS011;10713;51.912;4.494;2024-01-30T14:14:39;3.88;;;1.75;;
21110;SDS011;10713;51.912;4.494;2024-01-30T14:17:05;5.68;;;1.30;;
21110;SDS011;10713;51.912;4.494;2024-01-30T14:19:32;5.25;;;1.55;;
21110;SDS011;10713;51.912;4.494;2024-01-30T14:21:58;3.92;;;1.05;;
21110;SDS011;10713;51.912;4.494;2024-01-30T14:24:23;11.35;;;1.58;;
21110;SDS011;10713;51.912;4.494;2024-01-30T14:26:49;4.15;;;1.40;;
21110;SDS011;10713;51.912;4.494;2024-01-30T14:29:14;2.45;;;1.10;;
21110;SDS011;10713;51.912;4.494;2024-01-30T14:31:39;8.13;;;2.22;;
21110;SDS011;10713;51.912;4.494;2024-01-30T14:34:05;3.65;;;1.63;;